Time;durP1;ratioP1;P1;durP2;ratioP2;P2;SDS_P1;SDS_P2;PMS_P1;PMS_P2;Temp;Humidity;BMP_temperature;BMP_pressure;BME280_temperature;BME280_humidity;BME280_pressure;Samples;Min_cycle;Max_cycle;Signal;HPM_P1;HPM_P2
2022/04/29 00:02:04;;;;;;;11.33;5.90;;;;;10.20;102390.00;;;;4934007;28;20384;-69
2022/04/29 00:04:52;;;;;;;12.17;5.90;;;;;10.30;102391.00;;;;4930867;28;20244;-68
2022/04/29 00:07:39;;;;;;;8.50;5.60;;;;;10.40;102408.00;;;;4908355;29;20252;-71
2022/04/29 00:10:26;;;;;;;7.30;4.97;;;;;10.40;102402.00;;;;4903928;28;20313;-69
2022/04/29 00:13:14;;;;;;;9.53;5.37;;;;;10.50;102400.00;;;;4928555;28;20318;-69
2022/04/29 00:16:01;;;;;;;10.73;5.57;;;;;10.50;102397.00;;;;4930238;28;20245;-69
2022/04/29 00:18:47;;;;;;;10.77;5.30;;;;;10.50;102404.00;;;;4915713;28;20226;-69
2022/04/29 00:21:35;;;;;;;7.03;4.57;;;;;10.60;102407.00;;;;4904454;29;20726;-66
2022/04/29 00:24:21;;;;;;;10.03;4.60;;;;;10.60;102397.00;;;;4911101;29;20237;-69
2022/04/29 00:27:08;;;;;;;6.73;4.50;;;;;10.60;102401.00;;;;4909654;29;20249;-68
2022/04/29 00:29:54;;;;;;;8.10;4.50;;;;;10.50;102394.00;;;;4904542;29;20237;-69
2022/04/29 00:32:41;;;;;;;8.77;3.80;;;;;10.60;102382.00;;;;4904562;29;20244;-69
2022/04/29 00:35:28;;;;;;;5.83;3.53;;;;;10.60;102387.00;;;;4908821;29;20744;-68
2022/04/29 00:38:17;;;;;;;11.60;3.63;;;;;10.60;102392.00;;;;4910748;29;20256;-69
2022/04/29 00:41:03;;;;;;;4.20;3.43;;;;;10.50;102393.00;;;;4910075;29;20229;-67
2022/04/29 00:43:59;;;;;;;11.73;3.63;;;;;10.50;102398.00;;;;4910652;29;20239;-68
2022/04/29 00:46:47;;;;;;;5.73;3.20;;;;;10.50;102390.00;;;;4905368;29;20722;-70
2022/04/29 00:49:33;;;;;;;6.27;3.23;;;;;10.50;102389.00;;;;4904119;29;20239;-69
2022/04/29 00:52:20;;;;;;;5.23;3.30;;;;;10.50;102386.00;;;;4909319;29;20321;-70
2022/04/29 00:55:10;;;;;;;8.43;3.70;;;;;10.50;102374.00;;;;4910767;29;20244;-69
2022/04/29 00:58:03;;;;;;;4.70;3.10;;;;;10.40;102371.00;;;;4911013;29;20801;-69
2022/04/29 01:00:49;;;;;;;4.23;3.40;;;;;10.40;102377.00;;;;4907554;29;20733;-69
2022/04/29 01:03:38;;;;;;;3.87;2.90;;;;;10.30;102369.00;;;;4906818;29;20232;-69
2022/04/29 01:06:26;;;;;;;6.90;3.80;;;;;10.30;102373.00;;;;4910344;29;20247;-69
2022/04/29 01:09:12;;;;;;;6.40;3.50;;;;;10.30;102374.00;;;;4910188;29;20239;-69
2022/04/29 01:11:59;;;;;;;7.33;3.27;;;;;10.20;102360.00;;;;4910325;29;20249;-70
2022/04/29 01:14:45;;;;;;;6.80;3.17;;;;;10.10;102370.00;;;;4899534;29;20309;-69
2022/04/29 01:17:33;;;;;;;6.67;3.60;;;;;10.10;102357.00;;;;4903019;29;20787;-68
2022/04/29 01:20:21;;;;;;;7.50;3.30;;;;;10.10;102359.00;;;;4908437;29;20746;-68
2022/04/29 01:23:10;;;;;;;6.30;3.67;;;;;10.10;102357.00;;;;4909882;29;20316;-69
2022/04/29 01:25:56;;;;;;;5.83;3.23;;;;;10.20;102360.00;;;;4910138;29;20248;-71
2022/04/29 01:28:45;;;;;;;3.67;2.73;;;;;10.00;102357.00;;;;4903988;29;20281;-69
2022/04/29 01:31:32;;;;;;;4.60;2.87;;;;;10.00;102355.00;;;;4910193;29;20239;-69
2022/04/29 01:34:18;;;;;;;4.23;3.07;;;;;9.90;102350.00;;;;4910021;29;20238;-69
2022/04/29 01:37:05;;;;;;;5.80;3.27;;;;;9.80;102348.00;;;;4903034;29;20327;-69
2022/04/29 01:39:52;;;;;;;5.17;2.80;;;;;9.80;102338.00;;;;4905205;29;20237;-69
2022/04/29 01:42:40;;;;;;;6.67;3.37;;;;;9.90;102336.00;;;;4902782;29;20235;-70
2022/04/29 01:45:26;;;;;;;7.20;2.97;;;;;9.70;102332.00;;;;4909573;29;20235;-69
2022/04/29 01:48:13;;;;;;;4.77;2.70;;;;;9.90;102327.00;;;;4909453;29;20297;-68
2022/04/29 01:50:59;;;;;;;10.50;3.20;;;;;9.80;102322.00;;;;4909305;29;20793;-69
2022/04/29 01:53:45;;;;;;;5.13;3.50;;;;;9.80;102318.00;;;;4902964;29;20229;-68
2022/04/29 01:56:36;;;;;;;8.23;3.43;;;;;9.80;102332.00;;;;4902081;29;20243;-68
2022/04/29 01:59:22;;;;;;;4.67;2.80;;;;;9.70;102320.00;;;;4909416;29;20243;-70
2022/04/29 02:02:09;;;;;;;5.60;3.30;;;;;9.70;102325.00;;;;4920934;28;20374;-69
2022/04/29 02:04:55;;;;;;;5.50;3.33;;;;;9.70;102325.00;;;;4928501;28;20279;-67
2022/04/29 02:07:44;;;;;;;7.03;2.87;;;;;9.60;102313.00;;;;4905408;29;20234;-69
2022/04/29 02:10:30;;;;;;;8.07;3.50;;;;;9.60;102308.00;;;;4909392;29;20355;-68
2022/04/29 02:13:18;;;;;;;5.20;3.37;;;;;9.50;102316.00;;;;4909099;29;20289;-68
2022/04/29 02:16:05;;;;;;;9.50;3.23;;;;;9.40;102315.00;;;;4909070;29;20614;-69
2022/04/29 02:18:51;;;;;;;5.63;2.93;;;;;9.40;102319.00;;;;4903954;29;20234;-69
2022/04/29 02:21:37;;;;;;;5.87;3.13;;;;;9.40;102316.00;;;;4901887;29;20246;-69
2022/04/29 02:24:23;;;;;;;7.77;3.27;;;;;9.40;102310.00;;;;4909221;29;20588;-69
2022/04/29 02:27:09;;;;;;;6.70;3.20;;;;;9.20;102317.00;;;;4904184;29;20279;-69
2022/04/29 02:29:57;;;;;;;7.73;3.13;;;;;9.40;102314.00;;;;4904290;29;20677;-70
2022/04/29 02:32:44;;;;;;;5.33;3.30;;;;;9.30;102309.00;;;;4905953;29;20261;-69
2022/04/29 02:35:30;;;;;;;7.57;3.30;;;;;9.30;102307.00;;;;4908877;29;20608;-68
2022/04/29 02:38:16;;;;;;;7.33;3.77;;;;;9.20;102291.00;;;;4908821;29;20724;-70
2022/04/29 02:41:02;;;;;;;5.47;3.50;;;;;9.20;102307.00;;;;4909076;29;20259;-69
2022/04/29 02:43:49;;;;;;;8.40;3.50;;;;;9.10;102301.00;;;;4903081;29;20363;-69
2022/04/29 02:47:06;;;;;;;6.63;3.90;;;;;9.00;102301.00;;;;4901484;29;20604;-68
2022/04/29 02:49:47;;;;;;;7.20;4.30;;;;;9.10;102308.00;;;;4902456;29;20233;-67
2022/04/29 02:52:33;;;;;;;8.37;3.63;;;;;9.20;102306.00;;;;4908621;29;20294;-69
2022/04/29 02:55:19;;;;;;;6.43;3.83;;;;;9.00;102307.00;;;;4908631;29;20285;-70
2022/04/29 02:58:06;;;;;;;5.93;3.57;;;;;8.90;102303.00;;;;4908444;29;20285;-69
2022/04/29 03:00:52;;;;;;;11.47;4.37;;;;;9.10;102299.00;;;;4902785;29;20255;-70
2022/04/29 03:03:39;;;;;;;7.17;3.63;;;;;9.10;102300.00;;;;4901306;29;20246;-66
2022/04/29 03:06:26;;;;;;;8.20;3.53;;;;;9.00;102298.00;;;;4911556;29;20235;-68
2022/04/29 03:09:13;;;;;;;10.07;3.83;;;;;8.90;102299.00;;;;4912113;29;20370;-69
2022/04/29 03:11:59;;;;;;;8.47;3.60;;;;;8.90;102300.00;;;;4912380;29;20247;-69
2022/04/29 03:14:45;;;;;;;7.80;4.13;;;;;8.70;102302.00;;;;4912395;29;20737;-69
2022/04/29 03:20:38;;;;;;;8.93;3.73;;;;;8.90;102291.00;;;;4911771;29;20225;-69
2022/04/29 03:23:26;;;;;;;7.23;3.63;;;;;8.90;102298.00;;;;4912483;29;20241;-69
2022/04/29 03:26:13;;;;;;;9.63;3.90;;;;;8.70;102295.00;;;;4912196;29;20693;-68
2022/04/29 03:28:59;;;;;;;9.57;4.13;;;;;8.70;102293.00;;;;4912651;29;20250;-71
2022/04/29 03:31:45;;;;;;;8.13;3.80;;;;;8.70;102280.00;;;;4907200;29;20237;-69
2022/04/29 03:34:32;;;;;;;7.93;4.20;;;;;8.70;102277.00;;;;4912297;29;20243;-69
2022/04/29 03:37:19;;;;;;;7.77;3.50;;;;;8.70;102280.00;;;;4909260;29;20235;-68
2022/04/29 03:40:07;;;;;;;8.63;4.07;;;;;8.60;102290.00;;;;4912080;29;20729;-68
2022/04/29 03:42:56;;;;;;;5.67;3.53;;;;;8.50;102281.00;;;;4906245;29;20332;-69
2022/04/29 03:45:43;;;;;;;8.57;4.20;;;;;8.40;102278.00;;;;4904521;29;20252;-71
2022/04/29 03:49:35;;;;;;;8.13;4.00;;;;;8.50;102279.00;;;;4911926;29;20387;-68
2022/04/29 03:51:36;;;;;;;7.50;3.93;;;;;8.50;102281.00;;;;4910588;29;20225;-69
2022/04/29 03:54:24;;;;;;;7.47;4.17;;;;;8.40;102274.00;;;;4911744;29;20230;-70
2022/04/29 03:57:10;;;;;;;8.57;3.97;;;;;8.40;102273.00;;;;4916539;28;20240;-69
2022/04/29 03:59:57;;;;;;;9.07;3.70;;;;;8.30;102280.00;;;;4908931;29;20853;-69
2022/04/29 04:02:43;;;;;;;8.47;4.10;;;;;8.30;102278.00;;;;4925449;28;20416;-70
2022/04/29 04:05:30;;;;;;;10.90;4.13;;;;;8.30;102279.00;;;;4930420;28;20292;-70
2022/04/29 04:08:17;;;;;;;14.00;4.60;;;;;8.30;102269.00;;;;4930391;28;20244;-69
2022/04/29 04:11:04;;;;;;;11.17;4.17;;;;;8.30;102274.00;;;;4930632;28;20237;-69
2022/04/29 04:13:51;;;;;;;10.10;4.17;;;;;8.30;102282.00;;;;4904966;29;20723;-68
2022/04/29 04:16:37;;;;;;;11.00;4.17;;;;;8.30;102254.00;;;;4910841;29;20330;-69
2022/04/29 04:19:24;;;;;;;9.77;4.07;;;;;8.30;102273.00;;;;4911396;29;20244;-68
2022/04/29 04:22:10;;;;;;;7.30;4.13;;;;;8.30;102266.00;;;;4911053;29;20237;-70
2022/04/29 04:24:59;;;;;;;10.20;3.93;;;;;8.30;102272.00;;;;4905560;29;20257;-69
2022/04/29 04:27:46;;;;;;;10.67;4.93;;;;;8.20;102281.00;;;;4903835;29;20770;-68
2022/04/29 04:30:33;;;;;;;11.77;4.57;;;;;8.20;102284.00;;;;4910999;29;20242;-69
2022/04/29 04:33:19;;;;;;;8.83;4.60;;;;;8.20;102289.00;;;;4910681;29;20385;-65
2022/04/29 04:36:06;;;;;;;9.53;4.27;;;;;8.20;102276.00;;;;4910385;29;20241;-70
2022/04/29 04:38:52;;;;;;;11.23;4.73;;;;;8.30;102280.00;;;;4904887;29;20234;-69
2022/04/29 04:41:38;;;;;;;8.70;4.17;;;;;8.30;102285.00;;;;4910437;29;20237;-70
2022/04/29 04:44:26;;;;;;;10.07;4.03;;;;;8.30;102287.00;;;;4910988;29;20605;-68
2022/04/29 04:47:12;;;;;;;6.30;4.10;;;;;8.30;102296.00;;;;4910984;29;20440;-66
2022/04/29 04:49:58;;;;;;;10.57;4.37;;;;;8.40;102294.00;;;;4905273;29;20276;-67
2022/04/29 04:52:45;;;;;;;8.20;4.13;;;;;8.40;102297.00;;;;4910441;29;20634;-67
2022/04/29 04:55:32;;;;;;;9.23;4.00;;;;;8.40;102296.00;;;;4910872;29;20341;-67
2022/04/29 04:58:18;;;;;;;10.47;4.60;;;;;8.40;102283.00;;;;4910362;29;20241;-67
2022/04/29 05:01:05;;;;;;;8.83;4.33;;;;;8.50;102290.00;;;;4905040;29;20246;-64
2022/04/29 05:03:52;;;;;;;10.67;4.53;;;;;8.50;102287.00;;;;4903804;29;20281;-69
2022/04/29 05:06:38;;;;;;;8.73;4.00;;;;;8.40;102245.00;;;;4910298;29;20241;-68
2022/04/29 05:09:24;;;;;;;8.77;4.43;;;;;8.60;102286.00;;;;4910260;29;20268;-68
2022/04/29 05:12:11;;;;;;;9.57;4.63;;;;;8.50;102279.00;;;;4910038;29;20267;-67
2022/04/29 05:14:57;;;;;;;11.47;4.57;;;;;8.50;102288.00;;;;4904608;29;20319;-65
2022/04/29 05:17:45;;;;;;;7.67;4.00;;;;;8.70;102296.00;;;;4910527;29;20644;-68
2022/04/29 05:20:31;;;;;;;11.37;4.77;;;;;8.70;102307.00;;;;4910411;29;20245;-68
2022/04/29 05:23:17;;;;;;;10.87;4.47;;;;;8.60;102308.00;;;;4910458;29;20370;-68
2022/04/29 05:26:04;;;;;;;11.00;4.37;;;;;8.80;102305.00;;;;4907239;29;20241;-69
2022/04/29 05:28:50;;;;;;;9.67;4.63;;;;;8.80;102299.00;;;;4902655;29;20290;-65
2022/04/29 05:31:36;;;;;;;11.27;4.30;;;;;8.80;102291.00;;;;4909541;29;20343;-68
2022/04/29 05:34:24;;;;;;;11.00;4.33;;;;;8.80;102279.00;;;;4909978;29;20241;-69
2022/04/29 05:37:10;;;;;;;10.50;4.30;;;;;8.90;102281.00;;;;4905298;29;20363;-64
2022/04/29 05:43:02;;;;;;;12.07;3.73;;;;;9.00;102284.00;;;;4918048;28;20248;-68
2022/04/29 05:45:48;;;;;;;13.90;4.70;;;;;9.00;102277.00;;;;4901872;29;20230;-66
2022/04/29 05:48:34;;;;;;;11.73;4.53;;;;;9.00;102295.00;;;;4909436;29;20911;-68
2022/04/29 05:51:22;;;;;;;13.60;5.30;;;;;9.20;102285.00;;;;4905901;29;20243;-67
2022/04/29 05:54:09;;;;;;;7.00;3.60;;;;;9.10;102282.00;;;;4909821;29;20718;-68
2022/04/29 05:56:55;;;;;;;11.03;4.20;;;;;9.30;102280.00;;;;4909700;29;20241;-68
2022/04/29 05:59:41;;;;;;;10.90;3.93;;;;;9.40;102284.00;;;;4909509;29;20829;-68
2022/04/29 06:02:29;;;;;;;13.43;4.93;;;;;9.40;102275.00;;;;4909399;29;20739;-69
2022/04/29 06:05:15;;;;;;;9.80;3.83;;;;;9.40;102279.00;;;;4909506;29;20241;-68
2022/04/29 06:08:03;;;;;;;6.40;3.70;;;;;9.30;102290.00;;;;4903946;29;20245;-67
2022/04/29 06:10:50;;;;;;;7.70;4.17;;;;;9.50;102301.00;;;;4901877;29;20898;-69
2022/04/29 06:13:37;;;;;;;11.47;4.07;;;;;9.50;102284.00;;;;4909067;29;20249;-67
2022/04/29 06:16:24;;;;;;;10.20;4.13;;;;;9.40;102278.00;;;;4909648;29;20384;-67
2022/04/29 06:19:10;;;;;;;11.63;4.53;;;;;9.50;102284.00;;;;4909440;29;20309;-69
2022/04/29 06:22:04;;;;;;;7.00;3.97;;;;;9.50;102297.00;;;;4903324;29;20368;-67
2022/04/29 06:24:52;;;;;;;7.30;4.03;;;;;9.60;102292.00;;;;4903457;29;20724;-67
2022/04/29 06:27:55;;;;;;;10.00;4.30;;;;;9.60;102295.00;;;;4902219;29;20730;-68
2022/04/29 06:30:41;;;;;;;6.60;4.10;;;;;9.60;102295.00;;;;4908938;29;20243;-69
2022/04/29 06:33:43;;;;;;;8.70;4.53;;;;;9.70;102295.00;;;;4909262;29;20266;-66
2022/04/29 06:36:29;;;;;;;9.73;3.80;;;;;9.80;102288.00;;;;4909112;29;20236;-68
2022/04/29 06:39:15;;;;;;;13.17;5.03;;;;;9.80;102285.00;;;;4909066;29;20892;-68
2022/04/29 06:42:03;;;;;;;14.70;4.40;;;;;9.80;102285.00;;;;4902727;29;20287;-67
2022/04/29 06:44:49;;;;;;;9.00;4.33;;;;;9.90;102282.00;;;;4908553;29;20235;-68
2022/04/29 06:47:35;;;;;;;11.23;4.67;;;;;9.90;102285.00;;;;4909057;29;20234;-68
2022/04/29 06:50:21;;;;;;;16.30;4.93;;;;;10.10;102285.00;;;;4908884;29;20361;-68
2022/04/29 06:53:08;;;;;;;11.10;4.40;;;;;10.20;102285.00;;;;4908904;29;20250;-68
2022/04/29 06:55:55;;;;;;;14.03;4.43;;;;;10.20;102284.00;;;;4909304;29;20235;-67
2022/04/29 06:58:42;;;;;;;10.63;4.50;;;;;10.30;102285.00;;;;4908738;29;20260;-67
2022/04/29 07:01:28;;;;;;;9.00;4.07;;;;;10.40;102297.00;;;;4907785;29;20267;-68
2022/04/29 07:04:15;;;;;;;9.53;3.83;;;;;10.60;102304.00;;;;4908755;29;20245;-68
2022/04/29 07:07:02;;;;;;;12.43;4.30;;;;;10.80;102309.00;;;;4902740;29;20254;-68
2022/04/29 07:09:54;;;;;;;8.50;4.60;;;;;11.00;102305.00;;;;4908829;29;20445;-68
2022/04/29 07:12:46;;;;;;;17.30;4.53;;;;;11.20;102294.00;;;;4908430;29;20673;-67
2022/04/29 07:15:34;;;;;;;10.53;4.27;;;;;11.20;102300.00;;;;4908875;29;20318;-67
2022/04/29 07:18:20;;;;;;;14.93;4.57;;;;;11.00;102299.00;;;;4908605;29;20751;-68
2022/04/29 07:21:06;;;;;;;9.60;3.47;;;;;11.20;102300.00;;;;4902476;29;20352;-68
2022/04/29 07:23:52;;;;;;;15.40;4.57;;;;;11.20;102296.00;;;;4900994;29;20240;-69
2022/04/29 07:26:39;;;;;;;10.93;5.07;;;;;11.60;102272.00;;;;4908094;29;20237;-68
2022/04/29 07:29:26;;;;;;;10.60;4.30;;;;;11.80;102287.00;;;;4908843;29;20382;-67
2022/04/29 07:32:13;;;;;;;9.83;4.50;;;;;11.70;102288.00;;;;4903182;29;20247;-65
2022/04/29 07:44:12;;;;;;;6.87;4.07;;;;;11.90;102282.00;;;;4908055;29;20252;-67
2022/04/29 07:46:59;;;;;;;11.83;4.20;;;;;11.80;102278.00;;;;4901613;29;20261;-67
2022/04/29 07:49:47;;;;;;;10.70;4.40;;;;;11.80;102278.00;;;;4908440;29;20249;-67
2022/04/29 07:52:34;;;;;;;8.03;3.77;;;;;11.80;102275.00;;;;4910988;29;20370;-67
2022/04/29 07:55:20;;;;;;;8.63;4.20;;;;;11.70;102266.00;;;;4912091;29;20249;-68
2022/04/29 07:58:06;;;;;;;8.77;5.20;;;;;11.70;102274.00;;;;4905787;29;20245;-68
2022/04/29 08:00:52;;;;;;;11.60;3.90;;;;;11.80;102274.00;;;;4911574;29;20341;-69
2022/04/29 08:03:51;;;;;;;9.17;4.10;;;;;11.70;102275.00;;;;4911751;29;20750;-67
2022/04/29 08:06:40;;;;;;;7.40;3.83;;;;;11.60;102273.00;;;;4911427;29;20232;-67
2022/04/29 08:09:46;;;;;;;9.53;3.90;;;;;11.80;102269.00;;;;4911048;29;20329;-68
2022/04/29 08:12:32;;;;;;;10.63;4.30;;;;;11.80;102268.00;;;;4911402;29;20237;-67
2022/04/29 08:15:19;;;;;;;8.83;4.50;;;;;11.80;102267.00;;;;4911762;29;20244;-66
2022/04/29 08:18:05;;;;;;;8.87;3.80;;;;;11.80;102270.00;;;;4907217;29;20602;-65
2022/04/29 08:20:51;;;;;;;11.30;4.27;;;;;12.10;102273.00;;;;4910830;29;20309;-67
2022/04/29 08:23:39;;;;;;;11.07;4.20;;;;;12.10;102277.00;;;;4911304;29;20229;-67
2022/04/29 08:26:25;;;;;;;8.27;3.93;;;;;12.10;102275.00;;;;4911600;29;20311;-67
2022/04/29 08:29:12;;;;;;;6.60;3.63;;;;;12.20;102277.00;;;;4905758;29;20236;-68
2022/04/29 08:31:58;;;;;;;10.30;3.77;;;;;12.10;102281.00;;;;4903743;29;20253;-65
2022/04/29 08:34:44;;;;;;;9.03;4.20;;;;;12.10;102279.00;;;;4910583;29;20236;-67
2022/04/29 08:37:31;;;;;;;8.97;3.80;;;;;12.20;102283.00;;;;4911495;29;20366;-67
2022/04/29 08:40:18;;;;;;;8.50;3.90;;;;;12.20;102249.00;;;;4907934;29;20362;-67
2022/04/29 08:43:05;;;;;;;11.90;4.43;;;;;12.30;102271.00;;;;4904491;29;20248;-68
2022/04/29 08:45:52;;;;;;;8.10;3.87;;;;;12.30;102273.00;;;;4910892;29;20350;-65
2022/04/29 08:48:41;;;;;;;10.53;3.50;;;;;12.30;102267.00;;;;4910764;29;20241;-67
2022/04/29 08:51:27;;;;;;;9.37;3.87;;;;;12.40;102278.00;;;;4906676;29;20310;-67
2022/04/29 08:58:36;;;;;;;6.30;3.50;;;;;12.50;102277.00;;;;4911020;29;20248;-67
2022/04/29 09:00:26;;;;;;;9.43;3.67;;;;;12.40;102274.00;;;;4906400;29;20245;-65
2022/04/29 09:03:14;;;;;;;8.17;3.33;;;;;12.50;102267.00;;;;4903744;29;20245;-67
2022/04/29 09:06:02;;;;;;;5.10;3.03;;;;;12.70;102275.00;;;;4903695;29;20297;-67
2022/04/29 09:08:50;;;;;;;6.10;3.67;;;;;12.70;102282.00;;;;4910456;29;20289;-67
2022/04/29 09:11:36;;;;;;;7.93;3.50;;;;;12.80;102272.00;;;;4909722;29;20240;-66
2022/04/29 09:14:25;;;;;;;8.80;4.07;;;;;12.90;102273.00;;;;4910551;29;20253;-67
2022/04/29 09:17:26;;;;;;;7.27;4.60;;;;;13.00;102286.00;;;;4904184;29;20232;-67
2022/04/29 09:20:18;;;;;;;9.60;4.47;;;;;13.30;102277.00;;;;4910245;29;20249;-66
2022/04/29 09:23:06;;;;;;;7.57;3.17;;;;;13.70;102281.00;;;;4903549;29;20248;-67
2022/04/29 09:25:52;;;;;;;7.80;3.27;;;;;14.00;102281.00;;;;4909874;29;20796;-67
2022/04/29 09:28:39;;;;;;;8.60;3.03;;;;;14.10;102280.00;;;;4909952;29;20233;-68
2022/04/29 09:31:28;;;;;;;6.57;3.17;;;;;14.30;102277.00;;;;4909841;29;20282;-68
2022/04/29 09:34:45;;;;;;;5.73;3.37;;;;;14.50;102271.00;;;;4906986;29;20244;-68
2022/04/29 09:37:31;;;;;;;10.63;4.20;;;;;14.80;102276.00;;;;4906681;29;20358;-67
2022/04/29 09:40:16;;;;;;;5.73;3.10;;;;;14.90;102285.00;;;;4904753;29;20410;-65
2022/04/29 09:43:03;;;;;;;6.80;3.83;;;;;14.70;102273.00;;;;4910553;29;20622;-68
2022/04/29 09:45:49;;;;;;;8.40;3.73;;;;;14.70;102278.00;;;;4909906;29;20389;-68
2022/04/29 09:48:58;;;;;;;8.07;3.80;;;;;14.60;102279.00;;;;4910284;29;20237;-68
2022/04/29 09:51:49;;;;;;;8.40;3.57;;;;;14.90;102279.00;;;;4906950;29;20261;-69
2022/04/29 09:54:37;;;;;;;10.57;4.10;;;;;15.10;102287.00;;;;4925722;28;20237;-69
2022/04/29 09:57:24;;;;;;;10.03;4.20;;;;;14.90;102284.00;;;;4923737;28;20232;-68
2022/04/29 10:00:12;;;;;;;7.27;4.20;;;;;15.20;102276.00;;;;4922025;28;20237;-69
2022/04/29 10:03:03;;;;;;;9.13;4.00;;;;;15.00;102283.00;;;;4928235;28;20255;-69
2022/04/29 10:05:52;;;;;;;11.27;4.30;;;;;15.20;102282.00;;;;4926752;28;20229;-65
2022/04/29 10:08:39;;;;;;;7.73;4.00;;;;;15.20;102278.00;;;;4928126;28;20269;-68
2022/04/29 10:11:26;;;;;;;6.63;3.67;;;;;15.60;102266.00;;;;4928181;28;20638;-67
2022/04/29 10:14:15;;;;;;;6.50;3.23;;;;;15.60;102271.00;;;;4921682;28;20233;-67
2022/04/29 10:23:21;;;;;;;8.87;4.03;;;;;15.40;102279.00;;;;4905371;28;20237;-67
2022/04/29 10:26:07;;;;;;;5.80;3.43;;;;;15.30;102279.00;;;;4913855;28;20235;-68
2022/04/29 10:28:54;;;;;;;5.23;3.57;;;;;15.50;102283.00;;;;4909189;29;20233;-66
2022/04/29 10:31:41;;;;;;;9.60;3.90;;;;;15.50;102281.00;;;;4905742;29;20237;-68
2022/04/29 10:34:29;;;;;;;8.67;3.40;;;;;15.40;102282.00;;;;4928582;28;20228;-68
2022/04/29 10:37:15;;;;;;;8.90;3.83;;;;;15.60;102274.00;;;;4903322;29;20225;-66
2022/04/29 10:40:11;;;;;;;11.80;4.67;;;;;15.60;102272.00;;;;4909429;29;20259;-67
2022/04/29 10:43:09;;;;;;;9.00;4.87;;;;;15.70;102281.00;;;;4908712;29;20237;-67
2022/04/29 10:46:19;;;;;;;8.53;4.50;;;;;15.60;102278.00;;;;4908454;29;20237;-70
2022/04/29 10:49:30;;;;;;;11.23;4.10;;;;;15.70;102274.00;;;;4901454;29;20975;-67
2022/04/29 10:52:27;;;;;;;7.47;4.60;;;;;15.70;102274.00;;;;4897657;29;20234;-68
2022/04/29 10:55:24;;;;;;;6.37;3.50;;;;;15.80;102264.00;;;;4908936;29;20360;-68
2022/04/29 10:58:20;;;;;;;8.10;4.87;;;;;15.90;102277.00;;;;4901927;29;20225;-69
2022/04/29 11:01:23;;;;;;;9.83;4.90;;;;;15.70;102277.00;;;;4900779;29;20707;-69
2022/04/29 11:04:43;;;;;;;11.27;4.67;;;;;15.80;102275.00;;;;4901641;29;20720;-68
2022/04/29 11:07:45;;;;;;;7.77;4.43;;;;;16.00;102275.00;;;;4904195;29;20282;-68
2022/04/29 11:10:53;;;;;;;13.53;5.00;;;;;16.00;102266.00;;;;4904133;29;20234;-70
2022/04/29 11:13:43;;;;;;;8.63;4.60;;;;;16.00;102276.00;;;;4904952;29;20237;-68
2022/04/29 11:16:48;;;;;;;8.53;5.10;;;;;16.20;102267.00;;;;4904140;29;20317;-68
2022/04/29 11:19:35;;;;;;;9.33;4.57;;;;;16.20;102256.00;;;;4921251;28;20272;-67
2022/04/29 11:25:25;;;;;;;13.80;5.00;;;;;16.40;102259.00;;;;4910438;28;20235;-68
2022/04/29 11:28:13;;;;;;;8.47;4.63;;;;;16.50;102252.00;;;;4905131;29;20225;-70
2022/04/29 11:31:01;;;;;;;16.30;5.00;;;;;16.90;102245.00;;;;4911873;29;20251;-67
2022/04/29 11:33:48;;;;;;;11.83;5.17;;;;;17.00;102247.00;;;;4912120;29;20323;-67
2022/04/29 11:36:34;;;;;;;10.40;5.23;;;;;16.50;102242.00;;;;4908270;29;20287;-67
2022/04/29 11:39:20;;;;;;;11.77;4.83;;;;;16.30;102249.00;;;;4906445;29;20264;-69
2022/04/29 11:42:08;;;;;;;10.47;5.10;;;;;16.50;102248.00;;;;4911968;29;20317;-68
2022/04/29 11:44:56;;;;;;;9.43;4.70;;;;;16.50;102246.00;;;;4911786;29;20241;-66
2022/04/29 11:47:42;;;;;;;12.60;5.10;;;;;17.00;102242.00;;;;4911885;29;20318;-68
2022/04/29 11:50:31;;;;;;;6.73;4.40;;;;;17.20;102237.00;;;;4911636;29;20762;-68
2022/04/29 11:53:18;;;;;;;9.60;5.10;;;;;17.00;102227.00;;;;4905377;29;20270;-68
2022/04/29 11:56:05;;;;;;;8.77;4.57;;;;;17.10;102233.00;;;;4911867;29;20225;-67
2022/04/29 11:58:52;;;;;;;9.13;4.57;;;;;17.20;102235.00;;;;4911286;29;20399;-68
2022/04/29 12:01:41;;;;;;;6.70;4.50;;;;;17.30;102236.00;;;;4910983;29;20280;-68
2022/04/29 12:04:27;;;;;;;8.20;4.97;;;;;17.50;102245.00;;;;4906589;29;20378;-67
2022/04/29 12:07:15;;;;;;;8.93;4.40;;;;;17.50;102220.00;;;;4904492;29;20317;-68
2022/04/29 12:10:01;;;;;;;8.67;4.53;;;;;17.80;102229.00;;;;4911103;29;20252;-67
2022/04/29 12:12:47;;;;;;;10.33;4.63;;;;;17.90;102226.00;;;;4911070;29;20317;-67
2022/04/29 12:15:35;;;;;;;9.03;4.80;;;;;17.90;102228.00;;;;4911824;29;20610;-69
2022/04/29 12:18:41;;;;;;;10.33;5.00;;;;;17.80;102235.00;;;;4905513;29;20838;-67
2022/04/29 12:21:27;;;;;;;9.33;5.30;;;;;17.70;102226.00;;;;4911183;29;20249;-68
2022/04/29 12:24:14;;;;;;;8.13;5.40;;;;;17.80;102226.00;;;;4904235;29;20233;-68
2022/04/29 12:27:05;;;;;;;10.57;5.37;;;;;17.70;102235.00;;;;4911478;29;20397;-68
2022/04/29 12:34:48;;;;;;;8.10;4.93;;;;;17.80;102237.00;;;;4910972;29;20233;-68
2022/04/29 12:36:18;;;;;;;9.53;4.97;;;;;17.70;102223.00;;;;4904355;29;20234;-68
2022/04/29 12:39:06;;;;;;;10.67;5.00;;;;;17.80;102227.00;;;;4910997;29;20240;-68
2022/04/29 12:42:00;;;;;;;11.97;4.87;;;;;17.80;102220.00;;;;4910488;29;20320;-67
2022/04/29 12:45:10;;;;;;;7.40;5.30;;;;;17.80;102227.00;;;;4910736;29;20250;-69
2022/04/29 12:48:02;;;;;;;9.93;5.10;;;;;17.70;102216.00;;;;4908685;29;20236;-66
2022/04/29 12:50:49;;;;;;;10.13;5.33;;;;;17.70;102213.00;;;;4910369;29;20262;-68
2022/04/29 12:53:37;;;;;;;8.33;5.20;;;;;17.50;102211.00;;;;4911471;29;20241;-68
2022/04/29 12:56:25;;;;;;;9.40;4.47;;;;;17.40;102212.00;;;;4911289;29;20233;-67
2022/04/29 12:59:23;;;;;;;6.87;5.03;;;;;17.40;102202.00;;;;4910791;29;20303;-69
2022/04/29 13:02:09;;;;;;;9.13;5.43;;;;;17.40;102204.00;;;;4909926;29;20237;-65
2022/04/29 13:04:55;;;;;;;10.13;4.90;;;;;17.30;102203.00;;;;4910482;29;20244;-67
2022/04/29 13:07:41;;;;;;;10.93;5.00;;;;;17.20;102199.00;;;;4910634;29;20236;-67
2022/04/29 13:10:29;;;;;;;9.37;5.43;;;;;17.10;102208.00;;;;4904513;29;20237;-67
2022/04/29 13:13:16;;;;;;;10.60;5.27;;;;;17.00;102210.00;;;;4902713;29;20250;-68
2022/04/29 13:16:02;;;;;;;10.27;5.90;;;;;16.90;102194.00;;;;4910195;29;20241;-67
2022/04/29 13:18:49;;;;;;;7.83;5.27;;;;;17.10;102204.00;;;;4910207;29;20309;-68
2022/04/29 13:21:35;;;;;;;10.23;5.23;;;;;17.00;102198.00;;;;4907523;29;20847;-67
2022/04/29 13:24:22;;;;;;;8.33;5.30;;;;;16.80;102191.00;;;;4910680;29;20250;-66
2022/04/29 13:27:09;;;;;;;10.13;5.23;;;;;16.90;102186.00;;;;4909519;29;20305;-67
2022/04/29 13:29:56;;;;;;;6.70;5.17;;;;;16.90;102187.00;;;;4910080;29;20234;-68
2022/04/29 13:32:44;;;;;;;10.77;5.70;;;;;16.80;102188.00;;;;4910038;29;20245;-68
2022/04/29 13:35:30;;;;;;;10.90;5.93;;;;;16.50;102170.00;;;;4904454;29;20243;-67
2022/04/29 13:38:17;;;;;;;10.70;6.47;;;;;16.40;102177.00;;;;4902647;29;20226;-67
2022/04/29 13:41:04;;;;;;;10.77;6.20;;;;;16.40;102156.00;;;;4909736;29;20617;-66
2022/04/29 13:43:52;;;;;;;10.60;6.40;;;;;16.40;102169.00;;;;4909732;29;20232;-67
2022/04/29 13:46:54;;;;;;;12.73;7.40;;;;;16.30;102160.00;;;;4909320;29;20238;-67
2022/04/29 13:49:40;;;;;;;10.50;6.60;;;;;16.50;102168.00;;;;4909106;29;20653;-66
2022/04/29 13:55:31;;;;;;;11.17;6.40;;;;;16.20;102153.00;;;;4903933;29;20850;-68
2022/04/29 13:58:19;;;;;;;10.87;6.40;;;;;16.30;102148.00;;;;4901968;29;20306;-69
2022/04/29 14:01:06;;;;;;;12.00;6.63;;;;;16.20;102155.00;;;;4908942;29;20257;-68
2022/04/29 14:03:52;;;;;;;10.40;6.67;;;;;16.30;102143.00;;;;4907787;29;20610;-66
2022/04/29 14:06:39;;;;;;;9.33;5.83;;;;;16.50;102158.00;;;;4909981;29;20376;-64
2022/04/29 14:09:25;;;;;;;9.67;5.93;;;;;16.30;102147.00;;;;4903262;29;20236;-67
2022/04/29 14:12:12;;;;;;;9.03;5.80;;;;;16.50;102147.00;;;;4909252;29;20698;-66
2022/04/29 14:14:58;;;;;;;9.43;5.83;;;;;16.70;102154.00;;;;4909152;29;20323;-68
2022/04/29 14:17:46;;;;;;;12.00;5.63;;;;;16.70;102156.00;;;;4909106;29;20236;-66
2022/04/29 14:20:33;;;;;;;9.77;5.23;;;;;16.80;102151.00;;;;4903632;29;20233;-67
2022/04/29 14:23:19;;;;;;;8.73;5.80;;;;;16.70;102147.00;;;;4901582;29;20790;-67
2022/04/29 14:26:05;;;;;;;11.00;5.30;;;;;16.60;102140.00;;;;4908868;29;20244;-68
2022/04/29 14:28:51;;;;;;;7.83;5.03;;;;;16.60;102147.00;;;;4909136;29;20251;-66